createdAt,value
2018-06-25T00:00:56.577Z,97.7
2018-06-25T00:01:57.978Z,97.9
2018-06-25T00:02:59.379Z,97.1
2018-06-25T00:04:00.760Z,97.1
2018-06-25T00:05:02.157Z,96.9
2018-06-25T00:06:03.544Z,97.1
2018-06-25T00:07:04.941Z,97.2
2018-06-25T00:08:06.339Z,97.1
2018-06-25T00:09:07.740Z,97.2
2018-06-25T00:10:09.134Z,97.3
2018-06-25T00:11:10.524Z,97.4
2018-06-25T00:12:11.915Z,97.4
2018-06-25T00:13:13.307Z,96.9
2018-06-25T00:14:14.703Z,97.2
2018-06-25T00:15:16.094Z,96.9
2018-06-25T00:16:17.488Z,97.2
2018-06-25T00:17:18.879Z,97.3
2018-06-25T00:18:20.271Z,96.9
2018-06-25T00:19:21.663Z,97.3
2018-06-25T00:20:23.054Z,97.1
2018-06-25T00:21:24.446Z,97.0
2018-06-25T00:22:25.845Z,97.3
2018-06-25T00:23:27.241Z,97.6
2018-06-25T00:24:28.634Z,97.2
2018-06-25T00:25:30.025Z,97.2
2018-06-25T00:26:31.420Z,97.3
2018-06-25T00:27:32.809Z,96.7
2018-06-25T00:28:34.203Z,97.2
2018-06-25T00:29:35.597Z,96.6
2018-06-25T00:30:37.968Z,96.7
2018-06-25T00:31:39.350Z,97.1
2018-06-25T00:32:40.737Z,97.4
2018-06-25T00:33:42.130Z,97.0
2018-06-25T00:34:43.532Z,97.2
2018-06-25T00:35:44.924Z,97.1
2018-06-25T00:36:46.310Z,97.6
2018-06-25T00:37:47.704Z,97.3
2018-06-25T00:38:49.090Z,97.0
2018-06-25T00:39:50.486Z,97.5
2018-06-25T00:40:51.878Z,97.9
2018-06-25T00:41:53.267Z,97.8
2018-06-25T00:42:54.664Z,98.0
2018-06-25T00:43:56.062Z,98.2
2018-06-25T00:44:57.462Z,97.8
2018-06-25T00:45:58.851Z,97.9
2018-06-25T00:47:00.243Z,97.9
2018-06-25T00:48:01.635Z,97.9
2018-06-25T00:49:03.029Z,97.9
2018-06-25T00:50:04.423Z,97.8
2018-06-25T00:51:05.813Z,97.6
2018-06-25T00:52:07.211Z,97.7
2018-06-25T00:53:08.600Z,97.7
2018-06-25T00:54:09.993Z,98.1
2018-06-25T00:55:11.384Z,97.9
2018-06-25T00:56:12.773Z,98.1
2018-06-25T00:57:14.170Z,98.5
2018-06-25T00:58:15.564Z,98.2
2018-06-25T00:59:16.959Z,98.8
2018-06-25T01:00:18.349Z,99.1
2018-06-25T01:01:19.739Z,98.9
2018-06-25T01:02:21.129Z,99.2
2018-06-25T01:03:22.521Z,98.4
2018-06-25T01:04:23.921Z,98.5
2018-06-25T01:05:25.311Z,98.9
2018-06-25T01:06:26.704Z,99.2
2018-06-25T01:07:28.095Z,99.0
2018-06-25T01:08:29.484Z,99.3
2018-06-25T01:09:30.872Z,99.7
2018-06-25T01:10:32.265Z,99.2
2018-06-25T01:11:33.658Z,99.2
2018-06-25T01:12:35.048Z,99.1
2018-06-25T01:13:36.445Z,99.1
2018-06-25T01:14:37.836Z,99.0
2018-06-25T01:15:39.226Z,99.6
2018-06-25T01:16:40.620Z,99.6
2018-06-25T01:17:42.010Z,99.9
2018-06-25T01:18:43.403Z,99.1
2018-06-25T01:19:44.793Z,99.2
2018-06-25T01:20:46.184Z,99.0
2018-06-25T01:21:47.577Z,99.0
2018-06-25T01:22:49.967Z,99.4
2018-06-25T01:23:51.361Z,99.6
2018-06-25T01:24:52.764Z,100.0
2018-06-25T01:25:54.156Z,100.0
2018-06-25T01:26:55.548Z,100.0
2018-06-25T01:27:56.942Z,100.0
2018-06-25T01:28:58.334Z,100.0
2018-06-25T01:29:59.733Z,100.0
2018-06-25T01:31:01.153Z,100.0
2018-06-25T01:32:02.556Z,100.0
2018-06-25T01:33:04.681Z,100.0
2018-06-25T01:34:06.079Z,100.0
2018-06-25T01:35:07.474Z,100.0
2018-06-25T01:36:08.882Z,100.0
2018-06-25T01:37:10.273Z,100.0
2018-06-25T01:38:11.663Z,100.0
2018-06-25T01:39:13.060Z,100.0
2018-06-25T01:40:14.456Z,100.0
2018-06-25T01:41:15.849Z,100.0
2018-06-25T01:42:17.241Z,100.0
2018-06-25T01:43:18.634Z,100.0
2018-06-25T01:44:20.026Z,100.0
2018-06-25T01:45:21.416Z,100.0
2018-06-25T01:46:22.814Z,100.0
2018-06-25T01:47:24.208Z,100.0
2018-06-25T01:48:25.599Z,100.0
2018-06-25T01:49:26.999Z,100.0
2018-06-25T01:50:28.391Z,100.0
2018-06-25T01:51:29.786Z,100.0
2018-06-25T01:52:31.179Z,100.0
2018-06-25T01:53:32.577Z,100.0
2018-06-25T01:54:33.975Z,100.0
2018-06-25T01:55:35.387Z,100.0
2018-06-25T01:56:36.789Z,100.0
2018-06-25T01:57:38.178Z,100.0
2018-06-25T01:58:39.566Z,100.0
2018-06-25T01:59:40.963Z,100.0
2018-06-25T02:00:42.363Z,100.0
2018-06-25T02:01:43.753Z,100.0
2018-06-25T02:02:45.177Z,100.0
2018-06-25T02:03:46.546Z,100.0
2018-06-25T02:04:47.934Z,100.0
2018-06-25T02:05:49.351Z,100.0
2018-06-25T02:06:50.743Z,100.0
2018-06-25T02:07:52.136Z,100.0
2018-06-25T02:08:53.529Z,100.0
2018-06-25T02:09:54.921Z,100.0
2018-06-25T02:10:56.318Z,100.0
2018-06-25T02:11:57.706Z,100.0
2018-06-25T02:12:59.158Z,100.0
2018-06-25T02:14:00.499Z,100.0
2018-06-25T02:15:01.900Z,100.0
2018-06-25T02:16:03.288Z,100.0
2018-06-25T02:17:04.680Z,100.0
2018-06-25T02:18:06.075Z,100.0
2018-06-25T02:19:07.490Z,100.0
2018-06-25T02:20:08.877Z,100.0
2018-06-25T02:21:10.269Z,100.0
2018-06-25T02:22:11.664Z,100.0
2018-06-25T02:23:13.053Z,100.0
2018-06-25T02:24:14.448Z,100.0
2018-06-25T02:25:15.841Z,100.0
2018-06-25T02:26:17.235Z,100.0
2018-06-25T02:27:18.625Z,100.0
2018-06-25T02:28:20.016Z,100.0
2018-06-25T02:29:21.411Z,100.0
2018-06-25T02:30:22.804Z,100.0
2018-06-25T02:31:24.193Z,100.0
2018-06-25T02:32:25.591Z,100.0
2018-06-25T02:33:26.984Z,100.0
2018-06-25T02:34:28.371Z,100.0
2018-06-25T02:35:29.778Z,100.0
2018-06-25T02:36:31.158Z,100.0
2018-06-25T02:37:32.550Z,100.0
2018-06-25T02:38:33.972Z,100.0
2018-06-25T02:39:35.340Z,100.0
2018-06-25T02:40:36.730Z,100.0
2018-06-25T02:41:38.125Z,100.0
2018-06-25T02:42:39.513Z,100.0
2018-06-25T02:43:40.913Z,100.0
2018-06-25T02:44:42.303Z,100.0
2018-06-25T02:45:43.697Z,100.0
2018-06-25T02:46:45.091Z,100.0
2018-06-25T02:47:46.485Z,100.0
2018-06-25T02:48:47.886Z,100.0
2018-06-25T02:49:49.265Z,100.0
2018-06-25T02:50:50.661Z,100.0
2018-06-25T02:51:52.054Z,100.0
2018-06-25T02:52:53.449Z,100.0
2018-06-25T02:53:54.849Z,100.0
2018-06-25T02:54:56.245Z,100.0
2018-06-25T02:55:57.633Z,100.0
2018-06-25T02:56:59.022Z,100.0
2018-06-25T02:58:00.420Z,100.0
2018-06-25T02:59:01.808Z,100.0
2018-06-25T03:00:03.200Z,100.0
2018-06-25T03:01:04.595Z,100.0
2018-06-25T03:02:05.983Z,100.0
2018-06-25T03:03:07.374Z,100.0
2018-06-25T03:04:08.772Z,100.0
2018-06-25T03:05:10.163Z,100.0
2018-06-25T03:06:11.560Z,100.0
2018-06-25T03:07:13.006Z,100.0
2018-06-25T03:08:14.374Z,100.0
2018-06-25T03:09:15.783Z,100.0
2018-06-25T03:10:17.180Z,100.0
2018-06-25T03:11:18.573Z,100.0
2018-06-25T03:12:19.970Z,100.0
2018-06-25T03:13:21.363Z,100.0
2018-06-25T03:14:22.763Z,100.0
2018-06-25T03:15:24.155Z,100.0
2018-06-25T03:16:25.550Z,100.0
2018-06-25T03:17:26.945Z,100.0
2018-06-25T03:18:28.341Z,100.0
2018-06-25T03:19:29.734Z,100.0
2018-06-25T03:20:31.132Z,100.0
2018-06-25T03:21:32.535Z,100.0
2018-06-25T03:22:33.928Z,100.0
2018-06-25T03:23:35.321Z,100.0
2018-06-25T03:24:36.719Z,100.0
2018-06-25T03:25:38.116Z,100.0
2018-06-25T03:26:39.510Z,100.0
2018-06-25T03:27:40.905Z,100.0
2018-06-25T03:28:42.299Z,100.0
2018-06-25T03:29:43.697Z,100.0
2018-06-25T03:30:45.094Z,100.0
2018-06-25T03:31:46.480Z,100.0
2018-06-25T03:32:47.874Z,100.0
2018-06-25T03:33:49.268Z,100.0
2018-06-25T03:34:50.661Z,100.0
2018-06-25T03:35:52.055Z,100.0
2018-06-25T03:36:53.453Z,100.0
2018-06-25T03:37:54.845Z,100.0
2018-06-25T03:38:56.239Z,100.0
2018-06-25T03:39:57.633Z,100.0
2018-06-25T03:40:59.028Z,100.0
2018-06-25T03:42:00.424Z,100.0
2018-06-25T03:43:01.813Z,100.0
2018-06-25T03:44:03.207Z,100.0
2018-06-25T03:45:04.598Z,100.0
2018-06-25T03:46:06.545Z,100.0
2018-06-25T03:47:07.937Z,100.0
2018-06-25T03:48:09.341Z,100.0
2018-06-25T03:49:10.734Z,100.0
2018-06-25T03:50:12.134Z,100.0
2018-06-25T03:51:13.720Z,100.0
2018-06-25T03:52:15.113Z,100.0
2018-06-25T03:53:16.506Z,100.0
2018-06-25T03:54:17.907Z,100.0
2018-06-25T03:55:19.326Z,100.0
2018-06-25T03:56:20.715Z,100.0
2018-06-25T03:57:22.886Z,100.0
2018-06-25T03:58:24.275Z,100.0
2018-06-25T03:59:25.725Z,100.0
2018-06-25T04:00:27.092Z,100.0
2018-06-25T04:01:28.495Z,100.0
2018-06-25T04:02:30.211Z,100.0
2018-06-25T04:03:31.562Z,100.0
2018-06-25T04:04:33.054Z,100.0
2018-06-25T04:05:34.457Z,100.0
2018-06-25T04:06:35.868Z,100.0
2018-06-25T04:07:37.259Z,100.0
2018-06-25T04:08:38.659Z,100.0
2018-06-25T04:09:40.054Z,100.0
2018-06-25T04:10:41.453Z,100.0
2018-06-25T04:11:42.849Z,100.0
2018-06-25T04:12:44.237Z,100.0
2018-06-25T04:13:45.639Z,100.0
2018-06-25T04:14:47.031Z,100.0
2018-06-25T04:15:48.431Z,100.0
2018-06-25T04:16:49.834Z,100.0
2018-06-25T04:17:51.230Z,100.0
2018-06-25T04:18:52.624Z,100.0
2018-06-25T04:19:54.027Z,100.0
2018-06-25T04:20:55.419Z,100.0
2018-06-25T04:21:56.812Z,100.0
2018-06-25T04:22:58.207Z,100.0
2018-06-25T04:23:59.610Z,100.0
2018-06-25T04:25:01.008Z,100.0
2018-06-25T04:26:02.403Z,100.0
2018-06-25T04:27:03.805Z,100.0
2018-06-25T04:28:05.196Z,100.0
2018-06-25T04:29:06.600Z,100.0
2018-06-25T04:30:08.002Z,100.0
2018-06-25T04:31:09.401Z,100.0
2018-06-25T04:32:10.801Z,100.0
2018-06-25T04:33:12.194Z,100.0
2018-06-25T04:34:13.596Z,100.0
2018-06-25T04:35:14.992Z,100.0
2018-06-25T04:36:16.393Z,100.0
2018-06-25T04:37:17.791Z,100.0
2018-06-25T04:38:19.781Z,100.0
2018-06-25T04:39:21.180Z,100.0
2018-06-25T04:40:22.742Z,100.0
2018-06-25T04:41:24.015Z,100.0
2018-06-25T04:42:25.422Z,100.0
2018-06-25T04:43:26.821Z,100.0
2018-06-25T04:44:28.217Z,100.0
2018-06-25T04:45:29.632Z,100.0
2018-06-25T04:46:31.025Z,100.0
2018-06-25T04:47:32.442Z,100.0
2018-06-25T04:48:33.828Z,100.0
2018-06-25T04:49:35.225Z,100.0
2018-06-25T04:50:36.634Z,100.0
2018-06-25T04:51:38.019Z,100.0
2018-06-25T04:52:39.435Z,100.0
2018-06-25T04:53:40.830Z,100.0
2018-06-25T04:54:42.232Z,100.0
2018-06-25T04:55:43.638Z,100.0
2018-06-25T04:56:45.036Z,100.0
2018-06-25T04:57:46.426Z,100.0
2018-06-25T04:58:47.829Z,100.0
2018-06-25T04:59:49.231Z,100.0
2018-06-25T05:00:50.692Z,100.0
2018-06-25T05:01:52.029Z,100.0
2018-06-25T05:02:53.426Z,100.0
2018-06-25T05:03:54.823Z,100.0
2018-06-25T05:04:56.220Z,100.0
2018-06-25T05:05:57.618Z,100.0
2018-06-25T05:06:59.019Z,100.0
2018-06-25T05:08:00.412Z,100.0
2018-06-25T05:09:01.812Z,100.0
2018-06-25T05:10:03.241Z,100.0
2018-06-25T05:11:04.636Z,100.0
2018-06-25T05:12:06.547Z,100.0
2018-06-25T05:13:07.949Z,100.0
2018-06-25T05:14:09.343Z,100.0
2018-06-25T05:15:10.742Z,100.0
2018-06-25T05:16:12.143Z,100.0
2018-06-25T05:17:13.545Z,100.0
2018-06-25T05:18:14.949Z,100.0
2018-06-25T05:19:16.350Z,100.0
2018-06-25T05:20:17.750Z,100.0
2018-06-25T05:21:19.152Z,100.0
2018-06-25T05:22:20.555Z,100.0
2018-06-25T05:23:21.959Z,100.0
2018-06-25T05:24:23.362Z,100.0
2018-06-25T05:25:24.762Z,100.0
2018-06-25T05:26:26.160Z,100.0
2018-06-25T05:27:27.559Z,100.0
2018-06-25T05:28:28.979Z,100.0
2018-06-25T05:29:30.392Z,100.0
2018-06-25T05:30:31.794Z,100.0
2018-06-25T05:31:33.198Z,100.0
2018-06-25T05:32:34.596Z,100.0
2018-06-25T05:33:35.993Z,100.0
2018-06-25T05:34:37.395Z,100.0
2018-06-25T05:35:38.793Z,100.0
2018-06-25T05:36:40.197Z,100.0
2018-06-25T05:37:41.596Z,100.0
2018-06-25T05:38:42.999Z,100.0
2018-06-25T05:39:44.456Z,100.0
2018-06-25T05:40:45.789Z,100.0
2018-06-25T05:41:47.192Z,100.0
2018-06-25T05:42:48.587Z,100.0
2018-06-25T05:43:49.987Z,100.0
2018-06-25T05:44:51.388Z,100.0
2018-06-25T05:45:52.787Z,100.0
2018-06-25T05:46:54.187Z,100.0
2018-06-25T05:47:55.584Z,100.0
2018-06-25T05:48:57.060Z,100.0
2018-06-25T05:49:58.383Z,100.0
2018-06-25T05:50:59.782Z,100.0
2018-06-25T05:52:01.183Z,100.0
2018-06-25T05:53:02.585Z,100.0
2018-06-25T05:54:03.979Z,100.0
2018-06-25T05:55:05.371Z,100.0
2018-06-25T05:56:06.775Z,100.0
2018-06-25T05:57:08.174Z,100.0
2018-06-25T05:58:09.574Z,100.0
2018-06-25T05:59:10.987Z,100.0
2018-06-25T06:00:12.391Z,100.0
2018-06-25T06:01:13.789Z,100.0
2018-06-25T06:02:15.193Z,100.0
2018-06-25T06:03:16.584Z,100.0
2018-06-25T06:04:17.999Z,100.0
2018-06-25T06:05:19.400Z,100.0
2018-06-25T06:06:20.800Z,100.0
2018-06-25T06:07:22.204Z,100.0
2018-06-25T06:08:23.605Z,100.0
2018-06-25T06:09:25.008Z,100.0
2018-06-25T06:10:26.407Z,100.0
2018-06-25T06:11:27.804Z,100.0
2018-06-25T06:12:29.199Z,100.0
2018-06-25T06:13:30.599Z,100.0
2018-06-25T06:14:31.999Z,100.0
2018-06-25T06:15:33.394Z,100.0
2018-06-25T06:16:34.942Z,100.0
2018-06-25T06:17:36.413Z,100.0
2018-06-25T06:18:37.802Z,100.0
2018-06-25T06:19:39.202Z,100.0
2018-06-25T06:20:40.601Z,100.0
2018-06-25T06:21:42.006Z,100.0
2018-06-25T06:22:43.508Z,100.0
2018-06-25T06:23:44.903Z,100.0
2018-06-25T06:24:46.306Z,100.0
2018-06-25T06:25:47.699Z,100.0
2018-06-25T06:26:49.101Z,100.0
2018-06-25T06:27:50.495Z,100.0
2018-06-25T06:28:51.899Z,100.0
2018-06-25T06:29:53.297Z,100.0
2018-06-25T06:30:54.715Z,100.0
2018-06-25T06:31:56.092Z,100.0
2018-06-25T06:32:57.485Z,100.0
2018-06-25T06:33:58.882Z,100.0
2018-06-25T06:35:00.281Z,100.0
2018-06-25T06:36:01.683Z,100.0
2018-06-25T06:37:03.742Z,100.0
2018-06-25T06:38:05.138Z,100.0
2018-06-25T06:39:07.126Z,100.0
2018-06-25T06:40:08.566Z,100.0
2018-06-25T06:41:09.929Z,100.0
2018-06-25T06:42:11.329Z,100.0
2018-06-25T06:43:12.734Z,100.0
2018-06-25T06:44:14.133Z,100.0
2018-06-25T06:45:15.532Z,100.0
2018-06-25T06:46:16.937Z,100.0
2018-06-25T06:47:18.336Z,100.0
2018-06-25T06:48:19.740Z,100.0
2018-06-25T06:49:21.183Z,100.0
2018-06-25T06:50:22.582Z,100.0
2018-06-25T06:51:23.984Z,100.0
2018-06-25T06:52:25.381Z,100.0
2018-06-25T06:53:26.779Z,100.0
2018-06-25T06:54:28.180Z,100.0
2018-06-25T06:55:29.581Z,100.0
2018-06-25T06:56:30.980Z,100.0
2018-06-25T06:57:32.425Z,100.0
2018-06-25T06:58:33.782Z,100.0
2018-06-25T06:59:35.183Z,98.7
2018-06-25T07:00:36.624Z,98.6
2018-06-25T07:01:38.021Z,98.7
2018-06-25T07:02:39.456Z,99.3
2018-06-25T07:03:40.858Z,99.4
2018-06-25T07:04:42.304Z,99.3
2018-06-25T07:05:43.677Z,99.1
2018-06-25T07:06:45.108Z,98.9
2018-06-25T07:07:46.502Z,99.1
2018-06-25T07:08:47.926Z,99.3
2018-06-25T07:09:49.324Z,99.3
2018-06-25T07:10:50.721Z,98.9
2018-06-25T07:11:52.132Z,98.8
2018-06-25T07:12:53.531Z,98.6
2018-06-25T07:13:54.933Z,97.9
2018-06-25T07:14:56.329Z,98.1
2018-06-25T07:15:57.726Z,97.4
2018-06-25T07:16:59.153Z,97.6
2018-06-25T07:18:00.550Z,96.9
2018-06-25T07:19:01.950Z,96.4
2018-06-25T07:20:03.347Z,96.6
2018-06-25T07:21:04.746Z,95.9
2018-06-25T07:22:06.971Z,95.6
2018-06-25T07:23:07.496Z,95.6
2018-06-25T07:24:08.897Z,94.9
2018-06-25T07:25:10.301Z,95.3
2018-06-25T07:26:11.702Z,95.1
2018-06-25T07:27:13.103Z,95.3
2018-06-25T07:28:14.502Z,95.2
2018-06-25T07:29:15.957Z,95.0
2018-06-25T07:30:17.303Z,95.4
2018-06-25T07:31:18.705Z,95.2
2018-06-25T07:32:20.104Z,95.3
2018-06-25T07:33:21.507Z,93.9
2018-06-25T07:34:22.908Z,93.4
2018-06-25T07:35:24.307Z,93.6
2018-06-25T07:36:25.706Z,93.3
2018-06-25T07:37:27.115Z,92.6
2018-06-25T07:38:28.511Z,92.6
2018-06-25T07:39:29.915Z,92.8
2018-06-25T07:40:31.316Z,92.9
2018-06-25T07:41:32.841Z,92.5
2018-06-25T07:42:34.228Z,92.9
2018-06-25T07:43:35.623Z,92.9
2018-06-25T07:44:37.074Z,93.3
2018-06-25T07:45:38.428Z,92.8
2018-06-25T07:46:39.832Z,92.9
2018-06-25T07:47:41.233Z,92.4
2018-06-25T07:48:42.633Z,92.9
2018-06-25T07:49:44.028Z,92.7
2018-06-25T07:50:45.425Z,92.6
2018-06-25T07:51:46.826Z,92.6
2018-06-25T07:52:48.222Z,92.7
2018-06-25T07:53:49.618Z,92.6
2018-06-25T07:54:51.125Z,92.9
2018-06-25T07:55:52.539Z,92.9
2018-06-25T07:56:53.934Z,92.6
2018-06-25T07:57:55.328Z,92.6
2018-06-25T07:58:56.779Z,92.1
2018-06-25T07:59:58.175Z,92.9
2018-06-25T08:00:59.644Z,92.9
2018-06-25T08:02:01.042Z,92.6
2018-06-25T08:03:02.432Z,92.6
2018-06-25T08:04:03.830Z,92.6
2018-06-25T08:05:05.233Z,93.1
2018-06-25T08:06:07.483Z,92.8
2018-06-25T08:07:08.035Z,92.7
2018-06-25T08:08:09.436Z,92.8
2018-06-25T08:09:10.841Z,93.2
2018-06-25T08:10:12.240Z,93.4
2018-06-25T08:11:13.645Z,92.9
2018-06-25T08:12:15.037Z,92.6
2018-06-25T08:13:16.475Z,93.3
2018-06-25T08:14:17.874Z,93.1
2018-06-25T08:15:19.276Z,93.2
2018-06-25T08:16:20.760Z,93.4
2018-06-25T08:17:22.089Z,93.1
2018-06-25T08:18:23.479Z,93.0
2018-06-25T08:19:24.875Z,92.7
2018-06-25T08:20:26.350Z,93.1
2018-06-25T08:21:27.681Z,93.2
2018-06-25T08:22:29.079Z,92.2
2018-06-25T08:23:30.481Z,91.9
2018-06-25T08:24:31.883Z,93.0
2018-06-25T08:25:33.280Z,91.3
2018-06-25T08:26:34.677Z,91.9
2018-06-25T08:27:36.079Z,92.0
2018-06-25T08:28:37.480Z,91.4
2018-06-25T08:29:38.906Z,91.7
2018-06-25T08:30:40.289Z,91.7
2018-06-25T08:31:41.690Z,90.8
2018-06-25T08:32:43.096Z,90.7
2018-06-25T08:33:44.544Z,90.9
2018-06-25T08:34:45.898Z,91.2
2018-06-25T08:35:47.294Z,91.7
2018-06-25T08:36:48.694Z,91.5
2018-06-25T08:37:50.090Z,91.9
2018-06-25T08:38:51.487Z,91.3
2018-06-25T08:39:52.905Z,91.7
2018-06-25T08:40:54.302Z,91.5
2018-06-25T08:41:55.701Z,90.8
2018-06-25T08:42:57.189Z,91.5
2018-06-25T08:43:58.640Z,91.5
2018-06-25T08:45:00.047Z,91.4
2018-06-25T08:46:01.439Z,91.3
2018-06-25T08:47:02.836Z,91.0
2018-06-25T08:48:04.235Z,91.2
2018-06-25T08:49:05.631Z,91.1
2018-06-25T08:50:07.028Z,91.5
2018-06-25T08:51:08.426Z,91.6
2018-06-25T08:52:10.286Z,91.1
2018-06-25T08:53:11.678Z,91.4
2018-06-25T08:54:14.202Z,91.4
2018-06-25T08:55:15.594Z,91.1
2018-06-25T08:56:17.229Z,91.8
2018-06-25T08:57:18.628Z,91.4
2018-06-25T08:58:20.023Z,90.8
2018-06-25T08:59:21.467Z,91.5
2018-06-25T09:00:22.825Z,91.5
2018-06-25T09:01:24.220Z,91.6
2018-06-25T09:02:25.621Z,91.2
2018-06-25T09:03:27.015Z,91.7
2018-06-25T09:04:28.441Z,91.7
2018-06-25T09:05:29.810Z,91.8
2018-06-25T09:06:31.207Z,92.0
2018-06-25T09:07:32.603Z,91.9
2018-06-25T09:08:34.009Z,91.9
2018-06-25T09:09:35.440Z,91.4
2018-06-25T09:10:36.799Z,91.6
2018-06-25T09:11:38.199Z,91.2
2018-06-25T09:12:39.721Z,91.6
2018-06-25T09:13:41.125Z,91.0
2018-06-25T09:14:43.452Z,90.6
2018-06-25T09:15:44.851Z,89.5
2018-06-25T09:16:46.253Z,89.7
2018-06-25T09:17:47.650Z,90.2
2018-06-25T09:18:49.050Z,90.5
2018-06-25T09:19:50.460Z,89.8
2018-06-25T09:20:51.859Z,90.2
2018-06-25T09:21:53.254Z,90.4
2018-06-25T09:22:54.652Z,90.5
2018-06-25T09:23:56.050Z,89.8
2018-06-25T09:24:57.448Z,90.5
2018-06-25T09:25:58.956Z,90.4
2018-06-25T09:27:00.346Z,90.3
2018-06-25T09:28:01.798Z,89.5
2018-06-25T09:29:03.143Z,89.1
2018-06-25T09:30:04.534Z,89.5
2018-06-25T09:31:05.929Z,89.0
2018-06-25T09:32:07.335Z,90.0
2018-06-25T09:33:08.718Z,89.7
2018-06-25T09:34:10.118Z,89.7
2018-06-25T09:35:11.552Z,89.0
2018-06-25T09:36:12.918Z,88.3
2018-06-25T09:37:14.313Z,88.8
2018-06-25T09:38:15.716Z,88.5
2018-06-25T09:39:17.200Z,88.4
2018-06-25T09:40:18.606Z,88.2
2018-06-25T09:41:20.120Z,88.6
2018-06-25T09:42:21.378Z,87.9
2018-06-25T09:43:22.783Z,88.0
2018-06-25T09:44:24.177Z,88.4
2018-06-25T09:45:25.580Z,88.5
2018-06-25T09:46:26.976Z,88.0
2018-06-25T09:47:28.390Z,86.9
2018-06-25T09:48:29.792Z,87.4
2018-06-25T09:49:31.191Z,85.8
2018-06-25T09:50:32.598Z,86.1
2018-06-25T09:51:33.996Z,86.0
2018-06-25T09:52:35.397Z,85.0
2018-06-25T09:53:36.797Z,84.4
2018-06-25T09:54:38.201Z,84.1
2018-06-25T09:55:39.602Z,83.3
2018-06-25T09:56:41.001Z,82.7
2018-06-25T09:57:42.400Z,82.7
2018-06-25T09:58:43.800Z,83.5
2018-06-25T09:59:45.202Z,83.2
2018-06-25T10:00:46.602Z,82.5
2018-06-25T10:01:48.015Z,82.2
2018-06-25T10:02:49.417Z,81.9
2018-06-25T10:03:50.900Z,82.4
2018-06-25T10:04:53.123Z,82.4
2018-06-25T10:05:54.722Z,82.6
2018-06-25T10:06:56.109Z,81.8
2018-06-25T10:07:57.508Z,82.5
2018-06-25T10:08:59.052Z,82.9
2018-06-25T10:10:01.434Z,82.0
2018-06-25T10:11:03.114Z,82.0
2018-06-25T10:12:04.485Z,81.6
2018-06-25T10:13:06.015Z,81.0
2018-06-25T10:14:07.409Z,80.8
2018-06-25T10:15:08.815Z,81.8
2018-06-25T10:16:10.215Z,81.9
2018-06-25T10:17:11.620Z,81.8
2018-06-25T10:18:13.145Z,81.4
2018-06-25T10:19:14.656Z,81.0
2018-06-25T10:20:16.102Z,80.9
2018-06-25T10:21:17.524Z,80.1
2018-06-25T10:22:18.869Z,80.4
2018-06-25T10:23:20.273Z,80.6
2018-06-25T10:24:21.679Z,80.2
2018-06-25T10:25:23.079Z,80.2
2018-06-25T10:26:24.475Z,81.5
2018-06-25T10:27:25.881Z,80.0
2018-06-25T10:28:27.316Z,79.3
2018-06-25T10:29:28.947Z,78.7
2018-06-25T10:30:30.340Z,78.9
2018-06-25T10:31:31.741Z,78.1
2018-06-25T10:32:33.158Z,78.4
2018-06-25T10:33:34.553Z,77.7
2018-06-25T10:34:35.954Z,77.6
2018-06-25T10:35:37.359Z,78.0
2018-06-25T10:36:38.752Z,79.2
2018-06-25T10:37:40.155Z,78.7
2018-06-25T10:38:41.557Z,78.0
2018-06-25T10:39:42.965Z,78.3
2018-06-25T10:40:44.362Z,78.8
2018-06-25T10:41:45.762Z,78.4
2018-06-25T10:42:47.163Z,78.8
2018-06-25T10:43:48.560Z,78.6
2018-06-25T10:44:49.966Z,79.0
2018-06-25T10:45:51.363Z,79.5
2018-06-25T10:46:52.765Z,79.5
2018-06-25T10:47:54.164Z,80.4
2018-06-25T10:48:55.560Z,80.3
2018-06-25T10:49:56.959Z,80.8
2018-06-25T10:50:58.360Z,81.0
2018-06-25T10:52:00.582Z,80.5
2018-06-25T10:53:01.982Z,80.1
2018-06-25T10:54:03.411Z,79.7
2018-06-25T10:55:04.815Z,78.7
2018-06-25T10:56:06.248Z,79.1
2018-06-25T10:57:07.799Z,80.1
2018-06-25T10:58:09.199Z,80.0
2018-06-25T10:59:10.626Z,80.3
2018-06-25T11:00:12.208Z,79.5
2018-06-25T11:01:13.539Z,80.2
2018-06-25T11:02:14.834Z,79.5
2018-06-25T11:03:16.233Z,78.9
2018-06-25T11:04:17.672Z,78.9
2018-06-25T11:05:19.075Z,77.5
2018-06-25T11:06:20.473Z,76.2
2018-06-25T11:07:21.965Z,75.5
2018-06-25T11:08:23.369Z,75.5
2018-06-25T11:09:24.771Z,75.5
2018-06-25T11:10:26.171Z,76.3
2018-06-25T11:11:27.566Z,76.9
2018-06-25T11:12:28.970Z,76.5
2018-06-25T11:13:30.376Z,74.9
2018-06-25T11:14:31.775Z,75.0
2018-06-25T11:15:33.183Z,75.6
2018-06-25T11:16:34.598Z,75.8
2018-06-25T11:17:35.998Z,76.9
2018-06-25T11:18:37.401Z,76.9
2018-06-25T11:19:38.804Z,77.3
2018-06-25T11:20:40.205Z,77.2
2018-06-25T11:21:41.604Z,78.0
2018-06-25T11:22:43.015Z,77.5
2018-06-25T11:23:44.409Z,76.5
2018-06-25T11:24:45.814Z,78.0
2018-06-25T11:25:47.221Z,77.2
2018-06-25T11:26:48.687Z,77.0
2018-06-25T11:27:50.109Z,76.9
2018-06-25T11:28:51.421Z,76.8
2018-06-25T11:29:52.826Z,75.4
2018-06-25T11:30:54.224Z,75.1
2018-06-25T11:31:55.624Z,75.2
2018-06-25T11:32:57.024Z,74.9
2018-06-25T11:33:58.428Z,73.1
2018-06-25T11:34:59.826Z,73.8
2018-06-25T11:36:01.231Z,74.9
2018-06-25T11:37:02.629Z,74.8
2018-06-25T11:38:04.065Z,74.7
2018-06-25T11:39:05.462Z,73.2
2018-06-25T11:40:06.861Z,73.8
2018-06-25T11:41:08.261Z,72.1
2018-06-25T11:42:09.710Z,71.7
2018-06-25T11:43:11.063Z,71.4
2018-06-25T11:44:12.465Z,72.4
2018-06-25T11:45:13.864Z,71.8
2018-06-25T11:46:15.261Z,71.8
2018-06-25T11:47:16.741Z,70.6
2018-06-25T11:48:18.253Z,69.9
2018-06-25T11:49:19.608Z,70.0
2018-06-25T11:50:21.005Z,70.0
2018-06-25T11:51:22.407Z,70.6
2018-06-25T11:52:23.810Z,71.1
2018-06-25T11:53:25.214Z,69.7
2018-06-25T11:54:26.613Z,69.4
2018-06-25T11:55:28.011Z,69.3
2018-06-25T11:56:29.413Z,69.0
2018-06-25T11:57:30.812Z,69.5
2018-06-25T11:58:32.218Z,69.5
2018-06-25T11:59:33.618Z,69.2
2018-06-25T12:00:35.013Z,69.9
2018-06-25T12:01:36.419Z,70.5
2018-06-25T12:02:37.948Z,72.1
2018-06-25T12:03:39.213Z,71.5
2018-06-25T12:04:40.614Z,72.1
2018-06-25T12:05:42.015Z,71.8
2018-06-25T12:06:43.413Z,71.6
2018-06-25T12:07:44.812Z,71.5
2018-06-25T12:08:46.210Z,72.0
2018-06-25T12:09:47.610Z,72.0
2018-06-25T12:10:49.015Z,72.0
2018-06-25T12:11:50.410Z,72.1
2018-06-25T12:12:51.812Z,72.2
2018-06-25T12:13:53.213Z,71.8
2018-06-25T12:14:54.610Z,71.9
2018-06-25T12:15:56.012Z,72.8
2018-06-25T12:16:57.411Z,73.2
2018-06-25T12:17:58.811Z,73.1
2018-06-25T12:19:00.244Z,73.0
2018-06-25T12:20:01.621Z,72.4
2018-06-25T12:21:03.013Z,72.5
2018-06-25T12:22:04.410Z,72.9
2018-06-25T12:23:05.851Z,72.6
2018-06-25T12:24:07.211Z,73.7
2018-06-25T12:25:08.611Z,72.7
2018-06-25T12:26:10.017Z,73.0
2018-06-25T12:27:11.413Z,73.0
2018-06-25T12:28:12.814Z,74.1
2018-06-25T12:29:14.213Z,74.2
2018-06-25T12:30:15.611Z,73.3
2018-06-25T12:31:17.011Z,72.9
2018-06-25T12:32:18.410Z,72.9
2018-06-25T12:33:19.815Z,73.1
2018-06-25T12:34:21.212Z,73.2
2018-06-25T12:35:22.628Z,73.3
2018-06-25T12:36:24.065Z,72.6
2018-06-25T12:37:25.464Z,73.2
2018-06-25T12:38:26.957Z,72.7
2018-06-25T12:39:28.462Z,73.3
2018-06-25T12:40:29.868Z,72.5
2018-06-25T12:41:31.304Z,72.7
2018-06-25T12:42:32.655Z,73.4
2018-06-25T12:43:34.056Z,73.6
2018-06-25T12:44:35.454Z,72.9
2018-06-25T12:45:36.848Z,72.8
2018-06-25T12:46:38.248Z,71.9
2018-06-25T12:47:39.650Z,73.2
2018-06-25T12:48:41.052Z,73.7
2018-06-25T12:49:42.471Z,74.2
2018-06-25T12:50:43.867Z,74.0
2018-06-25T12:51:45.263Z,74.1
2018-06-25T12:52:46.663Z,74.5
2018-06-25T12:53:48.978Z,73.6
2018-06-25T12:54:50.341Z,73.6
2018-06-25T12:55:51.753Z,74.1
2018-06-25T12:56:53.165Z,74.4
2018-06-25T12:57:54.562Z,73.1
2018-06-25T12:58:55.967Z,72.7
2018-06-25T12:59:57.374Z,72.8
2018-06-25T13:00:59.023Z,72.5
2018-06-25T13:02:00.398Z,72.4
2018-06-25T13:03:01.800Z,71.6
2018-06-25T13:04:03.199Z,71.9
2018-06-25T13:05:04.602Z,72.2
2018-06-25T13:06:06.003Z,72.2
2018-06-25T13:07:07.404Z,72.6
2018-06-25T13:08:08.807Z,71.4
2018-06-25T13:09:10.354Z,70.8
2018-06-25T13:10:11.679Z,71.7
2018-06-25T13:11:13.985Z,71.6
2018-06-25T13:12:15.387Z,71.9
2018-06-25T13:13:16.788Z,70.7
2018-06-25T13:14:18.208Z,70.4
2018-06-25T13:15:19.607Z,70.9
2018-06-25T13:16:21.009Z,70.7
2018-06-25T13:17:22.412Z,70.5
2018-06-25T13:18:23.855Z,70.8
2018-06-25T13:19:25.210Z,71.5
2018-06-25T13:20:26.612Z,70.1
2018-06-25T13:21:28.013Z,69.7
2018-06-25T13:22:29.415Z,69.3
2018-06-25T13:23:30.858Z,68.5
2018-06-25T13:24:32.837Z,68.4
2018-06-25T13:25:34.305Z,66.9
2018-06-25T13:26:35.642Z,67.6